Time;durP1;ratioP1;P1;durP2;ratioP2;P2;SDS_P1;SDS_P2;PMS_P1;PMS_P2;Temp;Humidity;BMP_temperature;BMP_pressure;BME280_temperature;BME280_humidity;BME280_pressure;Samples;Min_cycle;Max_cycle;Signal;HPM_P1;HPM_P2
2021/12/17 00:05:06;;;;;;;22.17;9.23;;;;;;;3.85;89.12;100941.95;126209;1099;105652;-78
2021/12/17 00:07:39;;;;;;;19.93;8.57;;;;;;;3.87;89.58;100935.16;126300;1099;104631;-78
2021/12/17 00:10:11;;;;;;;22.35;10.00;;;;;;;3.88;89.01;100936.98;126330;1099;104159;-78
2021/12/17 00:12:40;;;;;;;21.27;9.53;;;;;;;3.90;89.67;100937.97;126268;1099;104377;-78
2021/12/17 00:15:11;;;;;;;21.43;9.80;;;;;;;3.92;89.48;100925.98;126212;1099;104149;-78
2021/12/17 00:17:50;;;;;;;22.03;10.63;;;;;;;3.93;88.78;100925.20;126359;1099;104220;-78
2021/12/17 00:40:26;;;;;;;28.30;13.60;;;;;;;4.17;90.40;100918.99;125384;1102;102288;-77
2021/12/17 00:48:39;;;;;;;28.30;13.07;;;;;;;4.23;90.65;100916.81;126320;1099;104233;-78
2021/12/17 00:54:03;;;;;;;25.93;12.43;;;;;;;4.27;90.82;100909.33;126138;1099;104258;-78
2021/12/17 00:56:31;;;;;;;26.02;12.95;;;;;;;4.28;91.28;100911.11;125365;1099;105701;-78
2021/12/17 00:59:00;;;;;;;25.20;12.50;;;;;;;4.30;91.06;100912.13;126337;1099;104743;-78
2021/12/17 01:01:31;;;;;;;25.93;12.13;;;;;;;4.32;91.55;100907.94;125279;1099;104160;-78
2021/12/17 01:04:00;;;;;;;27.10;12.07;;;;;;;4.33;91.36;100914.02;125368;1102;101910;-78
2021/12/17 01:06:29;;;;;;;24.07;11.40;;;;;;;4.34;91.46;100907.15;125341;1099;104733;-78
2021/12/17 01:08:59;;;;;;;22.60;10.97;;;;;;;4.35;91.51;100901.13;125235;1099;104223;-79
2021/12/17 01:11:35;;;;;;;23.27;10.80;;;;;;;4.37;91.59;100894.36;126296;1099;104169;-79
2021/12/17 01:14:36;;;;;;;22.30;10.30;;;;;;;4.39;91.90;100887.56;125329;1099;104214;-78
2021/12/17 01:17:31;;;;;;;21.23;10.57;;;;;;;4.42;91.23;100882.56;126183;1099;119931;-79
2021/12/17 01:20:44;;;;;;;19.67;9.40;;;;;;;4.45;91.44;100885.38;125213;1099;104377;-78
2021/12/17 01:23:57;;;;;;;20.37;9.70;;;;;;;4.47;91.44;100876.89;125424;1102;104178;-78
2021/12/17 01:36:10;;;;;;;20.70;9.13;;;;;;;4.62;92.27;100858.78;126182;1099;104191;-79
2021/12/17 01:41:59;;;;;;;20.33;10.00;;;;;;;4.66;91.71;100850.39;126300;1099;104159;-78
2021/12/17 01:44:30;;;;;;;20.90;10.47;;;;;;;4.67;91.98;100859.08;126353;1099;104213;-79
2021/12/17 01:47:03;;;;;;;19.20;10.13;;;;;;;4.68;91.91;100858.30;125445;1099;104142;-79
2021/12/17 02:00:55;;;;;;;21.67;10.67;;;;;;;4.71;92.06;100844.61;125248;1099;104272;-79
2021/12/17 02:03:28;;;;;;;20.67;10.10;;;;;;;4.70;92.00;100847.99;126303;1099;104631;-79
2021/12/17 02:06:00;;;;;;;21.37;10.00;;;;;;;4.72;92.06;100835.98;125219;1102;104328;-79
2021/12/17 02:08:29;;;;;;;20.60;9.97;;;;;;;4.71;92.40;100844.61;125244;1099;109792;-79
2021/12/17 02:31:25;;;;;;;20.67;10.17;;;;;;;4.66;91.97;100832.20;125356;1102;104255;-79
2021/12/17 02:34:02;;;;;;;22.77;10.90;;;;;;;4.67;92.50;100826.21;126320;1099;104146;-78
2021/12/17 02:36:35;;;;;;;23.20;12.13;;;;;;;4.67;91.67;100836.61;125164;1099;104224;-79
2021/12/17 02:39:27;;;;;;;21.80;10.18;;;;;;;4.69;91.99;100839.30;126380;1098;104159;-79
2021/12/17 02:47:58;;;;;;;24.70;11.93;;;;;;;4.69;92.08;100836.70;126186;1099;104159;-81
2021/12/17 02:50:35;;;;;;;22.07;11.73;;;;;;;4.70;92.44;100833.28;125142;1100;104198;-80
2021/12/17 02:53:07;;;;;;;22.47;11.73;;;;;;;4.70;91.99;100835.88;126352;1099;104162;-80
2021/12/17 02:55:40;;;;;;;20.97;10.53;;;;;;;4.71;92.30;100826.41;126281;1099;104149;-79
2021/12/17 02:58:11;;;;;;;21.43;11.40;;;;;;;4.71;92.17;100829.89;126111;1099;104152;-80
2021/12/17 03:00:42;;;;;;;22.13;11.20;;;;;;;4.70;92.38;100822.89;126155;1099;104297;-80
2021/12/17 03:03:13;;;;;;;22.10;10.60;;;;;;;4.72;92.10;100828.19;126198;1099;104329;-79
2021/12/17 03:05:45;;;;;;;21.70;11.50;;;;;;;4.72;91.73;100821.31;126153;1099;104158;-81
2021/12/17 03:08:38;;;;;;;21.97;10.93;;;;;;;4.72;92.06;100825.59;125191;1099;104214;-79
2021/12/17 03:11:09;;;;;;;21.93;11.67;;;;;;;4.72;92.53;100815.19;126210;1099;104347;-80
2021/12/17 03:13:38;;;;;;;24.67;11.60;;;;;;;4.72;92.57;100809.98;125414;1102;104140;-80
2021/12/17 03:16:13;;;;;;;24.70;12.13;;;;;;;4.72;91.66;100815.19;125290;1099;104166;-78
2021/12/17 03:18:59;;;;;;;24.23;12.20;;;;;;;4.71;92.21;100800.41;126231;1099;104137;-79
2021/12/17 03:24:22;;;;;;;24.57;12.37;;;;;;;4.66;91.97;100788.01;126317;1099;104280;-78
2021/12/17 03:26:55;;;;;;;23.40;11.77;;;;;;;4.66;92.24;100794.92;125202;1099;104255;-78
2021/12/17 03:29:23;;;;;;;22.30;11.00;;;;;;;4.64;91.33;100783.50;125307;1099;104152;-79
2021/12/17 03:32:00;;;;;;;24.07;11.43;;;;;;;4.62;91.08;100787.71;126337;1099;104213;-79
2021/12/17 03:34:30;;;;;;;22.60;11.37;;;;;;;4.60;91.44;100786.73;125348;1102;104342;-79
2021/12/17 03:36:58;;;;;;;23.13;11.60;;;;;;;4.57;91.76;100784.81;125265;1102;104149;-81
2021/12/17 03:39:37;;;;;;;24.60;12.13;;;;;;;4.54;91.62;100782.02;125233;1102;104193;-80
2021/12/17 03:42:09;;;;;;;25.90;11.80;;;;;;;4.52;91.54;100782.71;125276;1102;104739;-79
2021/12/17 03:44:40;;;;;;;22.80;11.23;;;;;;;4.48;91.44;100766.92;125323;1102;104178;-79
2021/12/17 03:47:33;;;;;;;23.17;11.13;;;;;;;4.46;90.97;100776.33;125349;1102;104149;-79
2021/12/17 03:50:20;;;;;;;23.37;11.73;;;;;;;4.44;91.73;100772.74;125260;1102;104194;-79
2021/12/17 03:52:49;;;;;;;24.47;12.30;;;;;;;4.41;91.81;100771.63;125278;1102;104195;-79
2021/12/17 03:55:18;;;;;;;23.20;11.67;;;;;;;4.36;91.23;100765.23;125308;1102;104150;-80
2021/12/17 03:57:50;;;;;;;24.03;11.77;;;;;;;4.32;90.99;100766.75;125325;1102;104152;-80
2021/12/17 04:00:19;;;;;;;26.83;11.93;;;;;;;4.29;91.45;100763.95;125200;1100;104303;-80
2021/12/17 04:03:02;;;;;;;24.20;11.07;;;;;;;4.27;91.00;100763.85;125152;1102;104335;-80
2021/12/17 04:05:41;;;;;;;23.90;10.97;;;;;;;4.23;91.49;100761.84;125515;1099;104268;-79
2021/12/17 04:08:29;;;;;;;24.20;10.43;;;;;;;4.19;91.36;100759.86;126085;1099;104146;-79
2021/12/17 04:11:29;;;;;;;23.70;11.27;;;;;;;4.15;91.39;100755.26;126130;1099;104728;-79
2021/12/17 04:14:04;;;;;;;24.70;11.30;;;;;;;4.11;91.23;100761.03;125381;1099;104205;-78
2021/12/17 04:16:41;;;;;;;23.67;11.00;;;;;;;4.07;90.58;100766.84;125304;1099;104206;-78
2021/12/17 04:19:10;;;;;;;22.93;10.37;;;;;;;4.04;90.46;100754.55;126192;1099;104140;-80
2021/12/17 04:21:42;;;;;;;23.90;10.90;;;;;;;4.01;90.07;100758.66;125368;1100;104251;-80
2021/12/17 04:24:10;;;;;;;24.07;11.10;;;;;;;3.99;90.59;100757.62;125309;1099;104290;-79
2021/12/17 04:26:40;;;;;;;21.77;10.27;;;;;;;3.95;90.49;100767.81;126217;1099;104402;-80
2021/12/17 04:29:17;;;;;;;21.17;9.37;;;;;;;3.93;91.20;100766.82;125286;1099;104319;-80
2021/12/17 04:31:51;;;;;;;20.97;10.07;;;;;;;3.92;90.72;100767.61;125417;1099;104373;-79
2021/12/17 04:34:19;;;;;;;;;;;;;;;3.90;90.72;100758.83;125421;1099;104153;-80
2021/12/17 04:36:50;;;;;;;23.77;10.37;;;;;;;3.89;90.96;100759.61;125451;1099;104207;-79
2021/12/17 04:39:50;;;;;;;24.23;10.33;;;;;;;3.90;90.56;100751.04;125422;1102;104482;-80
2021/12/17 04:42:26;;;;;;;22.67;9.77;;;;;;;3.93;90.63;100753.84;126316;1099;107059;-79
2021/12/17 04:44:58;;;;;;;21.27;10.07;;;;;;;3.94;90.63;100746.94;125403;1099;104370;-79
2021/12/17 04:58:37;;;;;;;25.77;11.13;;;;;;;4.02;90.23;100758.75;125357;1099;104185;-79
2021/12/17 05:01:12;;;;;;;25.63;10.83;;;;;;;4.03;89.67;100759.64;126229;1099;104149;-79
2021/12/17 05:03:41;;;;;;;26.03;11.93;;;;;;;4.03;90.53;100763.13;125275;1099;104198;-79
2021/12/17 05:06:10;;;;;;;26.23;12.17;;;;;;;4.05;89.85;100765.83;125286;1102;104322;-80
2021/12/17 05:08:55;;;;;;;26.10;11.47;;;;;;;4.05;90.25;100761.55;125368;1099;105185;-80
2021/12/17 05:11:38;;;;;;;27.73;12.27;;;;;;;4.07;90.55;100766.84;126048;1099;105392;-79
2021/12/17 05:19:46;;;;;;;26.77;11.60;;;;;;;4.07;90.15;100759.95;125385;1102;104155;-79
2021/12/17 05:22:17;;;;;;;26.37;12.68;;;;;;;4.08;90.32;100766.03;125389;1099;104198;-80
2021/12/17 05:24:46;;;;;;;24.37;11.50;;;;;;;4.06;90.18;100768.52;125135;1099;104185;-80
2021/12/17 05:27:15;;;;;;;27.17;12.83;;;;;;;4.08;89.80;100771.22;126062;1099;104155;-80
2021/12/17 05:29:51;;;;;;;27.73;12.10;;;;;;;4.07;89.60;100759.95;125174;1102;104140;-81
2021/12/17 05:32:22;;;;;;;27.50;12.45;;;;;;;4.09;90.25;100754.85;125178;1102;105527;-80
2021/12/17 05:34:51;;;;;;;28.07;12.27;;;;;;;4.09;89.38;100752.26;125157;1099;104335;-80
2021/12/17 05:37:23;;;;;;;24.83;11.87;;;;;;;4.10;90.09;100756.66;125852;1099;104307;-77
2021/12/17 05:39:52;;;;;;;26.57;12.00;;;;;;;4.10;89.76;100751.47;125971;1098;104291;-77
2021/12/17 05:42:22;;;;;;;26.73;12.20;;;;;;;4.08;90.01;100756.56;125285;1099;104204;-78
2021/12/17 05:45:10;;;;;;;26.57;11.70;;;;;;;4.09;89.78;100763.53;125258;1102;104285;-78
2021/12/17 05:47:39;;;;;;;27.87;12.07;;;;;;;4.10;88.99;100767.05;125095;1102;104287;-77
2021/12/17 05:50:10;;;;;;;27.40;13.00;;;;;;;4.11;89.28;100766.23;125172;1102;104414;-80
2021/12/17 05:52:42;;;;;;;27.40;12.63;;;;;;;4.12;89.46;100776.72;125063;1102;104146;-79
2021/12/17 05:55:12;;;;;;;22.00;10.37;;;;;;;4.11;89.23;100767.16;125237;1102;104191;-80
2021/12/17 05:57:42;;;;;;;25.93;11.87;;;;;;;4.12;89.77;100768.04;125227;1102;104296;-80
2021/12/17 06:00:17;;;;;;;26.83;11.33;;;;;;;4.14;88.81;100766.43;125232;1102;104252;-80
2021/12/17 06:02:51;;;;;;;26.70;11.73;;;;;;;4.12;89.29;100755.05;125218;1102;104182;-79
2021/12/17 06:05:37;;;;;;;25.43;11.67;;;;;;;4.10;89.14;100749.77;125189;1102;104386;-80
2021/12/17 06:08:07;;;;;;;24.80;11.60;;;;;;;4.10;89.18;100761.86;125193;1102;104163;-81
2021/12/17 06:10:38;;;;;;;23.87;11.17;;;;;;;4.09;89.64;100755.73;125181;1102;104159;-79
2021/12/17 06:13:11;;;;;;;23.27;10.80;;;;;;;4.09;88.76;100747.95;125181;1102;104300;-78
2021/12/17 06:15:45;;;;;;;24.47;10.60;;;;;;;4.09;88.40;100754.85;125274;1102;104204;-79
2021/12/17 06:18:15;;;;;;;24.77;10.63;;;;;;;4.07;88.73;100749.56;125279;1102;104670;-81
2021/12/17 06:20:51;;;;;;;20.23;10.73;;;;;;;4.06;88.70;100744.27;125246;1100;104158;-81
2021/12/17 06:23:29;;;;;;;24.77;10.80;;;;;;;4.06;89.11;100758.13;125125;1099;104255;-80
2021/12/17 06:26:01;;;;;;;22.13;9.80;;;;;;;4.06;88.97;100752.05;125219;1099;104198;-78
2021/12/17 06:28:49;;;;;;;;;;;;;;;;;;;;;
2021/12/17 06:31:24;;;;;;;23.83;10.70;;;;;;;4.05;88.48;100750.25;125195;1099;104297;-79
2021/12/17 06:33:55;;;;;;;23.87;10.33;;;;;;;4.05;88.59;100756.36;125195;1099;104703;-77
2021/12/17 06:36:28;;;;;;;24.27;10.43;;;;;;;4.05;88.30;100758.03;125318;1098;104057;-77
2021/12/17 06:39:06;;;;;;;23.73;9.47;;;;;;;4.05;87.95;100765.83;125174;1099;104278;-77
2021/12/17 06:41:42;;;;;;;22.33;9.97;;;;;;;4.04;87.65;100766.64;125021;1102;104168;-79
2021/12/17 06:44:15;;;;;;;23.47;9.33;;;;;;;4.03;87.84;100755.34;125088;1102;104370;-80
2021/12/17 06:46:55;;;;;;;19.47;8.77;;;;;;;4.04;88.12;100759.74;125127;1102;104351;-79
2021/12/17 06:49:31;;;;;;;22.80;9.20;;;;;;;4.06;87.99;100757.25;125064;1102;104236;-82
2021/12/17 06:55:35;;;;;;;23.73;8.40;;;;;;;4.07;87.11;100759.95;125030;1102;102477;-80
2021/12/17 07:10:39;;;;;;;25.57;10.10;;;;;;;4.13;87.62;100767.25;124989;1102;102441;-80
2021/12/17 07:21:38;;;;;;;21.73;8.80;;;;;;;4.56;86.59;100776.92;125043;1102;104284;-78
2021/12/17 07:33:09;;;;;;;11.07;5.17;;;;;;;4.45;84.71;100789.22;124880;1102;104191;-84
2021/12/17 07:35:55;;;;;;;13.87;4.77;;;;;;;4.34;84.92;100791.12;124873;1102;104399;-81
2021/12/17 07:38:38;;;;;;;10.90;5.20;;;;;;;4.27;85.04;100795.02;124825;1102;104338;-82
2021/12/17 07:45:01;;;;;;;17.07;5.43;;;;;;;4.30;84.95;100795.22;125084;1102;104230;-81
2021/12/17 07:51:10;;;;;;;10.57;4.73;;;;;;;4.29;84.75;100790.81;124909;1102;104220;-79
2021/12/17 07:54:19;;;;;;;14.07;5.60;;;;;;;4.31;84.83;100786.61;125086;1102;104174;-79
2021/12/17 07:56:59;;;;;;;;;;;;;;;4.35;83.60;100779.02;125149;1102;110254;-80
2021/12/17 07:59:59;;;;;;;;;;;;;;;;;;;;;
2021/12/17 08:02:49;;;;;;;10.27;4.53;;;;;;;4.41;84.43;100780.34;125072;1102;104565;-81
2021/12/17 08:05:44;;;;;;;12.20;4.83;;;;;;;4.49;84.04;100780.84;125004;1102;104163;-80
2021/12/17 08:08:15;;;;;;;13.13;5.40;;;;;;;4.55;83.96;100777.71;125046;1102;104310;-80
2021/12/17 08:10:54;;;;;;;15.30;5.63;;;;;;;4.62;84.48;100775.60;125150;1099;104357;-79
2021/12/17 08:13:32;;;;;;;18.13;6.43;;;;;;;4.66;84.10;100790.61;125272;1099;102823;-80
2021/12/17 08:16:34;;;;;;;18.30;6.60;;;;;;;4.72;84.23;100784.91;125159;1102;104194;-81
2021/12/17 08:25:12;;;;;;;18.57;7.63;;;;;;;4.85;84.42;100791.78;125300;1099;104217;-79
2021/12/17 08:28:07;;;;;;;19.50;8.43;;;;;;;4.86;83.96;100790.95;126188;1099;104143;-80
2021/12/17 08:30:45;;;;;;;21.77;7.50;;;;;;;4.86;84.68;100794.48;125240;1099;104162;-80
2021/12/17 08:33:21;;;;;;;20.97;8.70;;;;;;;4.84;84.38;100788.26;125233;1099;104179;-80
2021/12/17 08:35:58;;;;;;;20.67;8.80;;;;;;;4.85;84.00;100782.27;125254;1099;104149;-81
2021/12/17 08:38:32;;;;;;;24.07;8.80;;;;;;;4.88;84.44;100783.25;126066;1097;104573;-79
2021/12/17 08:41:04;;;;;;;20.83;8.73;;;;;;;4.89;84.17;100787.66;125303;1102;104290;-79
2021/12/17 08:43:39;;;;;;;20.37;8.57;;;;;;;4.92;83.87;100780.05;125236;1099;104192;-80
2021/12/17 08:46:14;;;;;;;19.87;8.30;;;;;;;4.93;83.61;100780.16;125207;1099;103980;-79
2021/12/17 08:49:07;;;;;;;27.33;8.93;;;;;;;4.96;84.23;100775.14;125405;1099;104140;-80
2021/12/17 08:51:47;;;;;;;22.10;9.15;;;;;;;4.99;84.11;100774.45;125867;1099;104241;-82
2021/12/17 08:54:18;;;;;;;17.60;7.87;;;;;;;5.03;83.57;100782.53;125150;1099;104237;-81
2021/12/17 08:57:09;;;;;;;19.53;8.30;;;;;;;5.01;82.81;100773.72;125072;1102;104612;-82
2021/12/17 08:59:42;;;;;;;22.23;8.40;;;;;;;5.02;83.19;100767.72;125026;1102;104165;-82
2021/12/17 09:02:17;;;;;;;23.77;9.00;;;;;;;5.04;83.23;100770.42;125140;1102;104185;-80
2021/12/17 09:05:10;;;;;;;23.77;8.90;;;;;;;5.07;83.67;100769.72;125268;1102;104598;-82
2021/12/17 09:07:54;;;;;;;22.57;9.00;;;;;;;5.10;83.47;100764.71;125155;1102;104650;-82
2021/12/17 09:10:44;;;;;;;22.53;8.80;;;;;;;5.12;83.09;100773.50;125186;1102;104414;-79
2021/12/17 09:13:19;;;;;;;21.13;8.43;;;;;;;5.13;83.43;100767.50;124859;1102;105627;-81
2021/12/17 09:15:52;;;;;;;;;;;;;;;5.12;81.32;100760.48;125182;1102;104236;-81
2021/12/17 09:18:48;;;;;;;21.43;8.60;;;;;;;5.14;82.88;100756.27;125088;1103;104227;-81
2021/12/17 09:21:28;;;;;;;18.20;6.33;;;;;;;5.16;83.03;100763.38;125194;1102;104169;-80
2021/12/17 09:24:19;;;;;;;20.63;8.17;;;;;;;5.16;81.82;100770.30;125219;1102;104236;-81
2021/12/17 09:31:32;;;;;;;19.07;7.47;;;;;;;5.20;81.53;100756.65;125216;1099;104229;-79
2021/12/17 09:34:26;;;;;;;19.47;8.03;;;;;;;5.24;82.57;100740.44;125259;1099;104216;-79
2021/12/17 09:41:10;;;;;;;21.90;8.50;;;;;;;5.26;81.61;100720.59;124800;1102;104434;-80
2021/12/17 09:44:01;;;;;;;23.47;8.90;;;;;;;5.31;82.34;100719.16;125069;1102;104147;-77
2021/12/17 09:46:32;;;;;;;19.93;7.90;;;;;;;5.33;81.09;100727.98;125162;1101;104281;-81
2021/12/17 09:49:08;;;;;;;21.30;8.15;;;;;;;5.33;81.62;100730.58;125221;1102;104303;-80
2021/12/17 09:51:38;;;;;;;;;;;;;;;5.30;79.57;100733.00;125156;1101;104187;-80
2021/12/17 09:56:55;;;;;;;19.07;7.77;;;;;;;5.30;81.52;100714.78;125032;1103;104214;-81
2021/12/17 09:59:25;;;;;;;19.63;8.07;;;;;;;5.34;81.59;100711.54;125116;1102;105474;-80
2021/12/17 10:01:57;;;;;;;23.40;7.80;;;;;;;5.35;81.07;100718.55;125161;1102;104345;-81
2021/12/17 10:04:32;;;;;;;23.17;8.17;;;;;;;5.35;81.07;100715.95;125105;1102;104312;-78
2021/12/17 10:07:32;;;;;;;19.30;7.83;;;;;;;5.33;80.78;100711.45;125172;1102;104206;-79
2021/12/17 10:10:10;;;;;;;20.17;7.60;;;;;;;5.29;81.17;100710.38;125196;1102;108465;-78
2021/12/17 10:12:41;;;;;;;20.40;6.97;;;;;;;5.22;80.55;100698.71;125261;1102;104351;-79
2021/12/17 10:15:13;;;;;;;21.97;8.13;;;;;;;5.17;80.92;100694.02;125154;1102;104373;-79
2021/12/17 10:17:55;;;;;;;20.17;7.00;;;;;;;5.14;80.28;100694.75;125077;1102;102593;-80
2021/12/17 10:20:39;;;;;;;20.43;7.20;;;;;;;5.13;80.92;100684.26;125683;1099;119023;-80
2021/12/17 10:23:23;;;;;;;19.25;7.33;;;;;;;5.13;80.67;100690.34;125799;1099;104278;-81
2021/12/17 10:25:54;;;;;;;;;;;;;;;5.12;80.56;100685.94;125877;1099;104175;-78
2021/12/17 10:28:30;;;;;;;19.87;7.60;;;;;;;5.15;81.39;100682.64;125175;1099;104380;-81
2021/12/17 10:31:02;;;;;;;17.53;6.93;;;;;;;5.17;80.68;100691.42;125077;1099;104230;-77
2021/12/17 10:33:35;;;;;;;20.77;7.77;;;;;;;5.15;80.39;100688.73;125003;1100;104429;-78
2021/12/17 10:36:10;;;;;;;18.33;7.00;;;;;;;5.15;79.69;100708.66;125063;1099;104749;-78
2021/12/17 10:38:45;;;;;;;18.63;7.17;;;;;;;5.17;80.96;100689.73;125210;1099;104206;-78
2021/12/17 10:41:15;;;;;;;21.50;7.70;;;;;;;5.20;81.00;100686.41;125111;1102;108454;-79
2021/12/17 10:43:55;;;;;;;19.40;7.77;;;;;;;5.22;81.30;100683.09;125070;1102;104351;-81
2021/12/17 10:46:30;;;;;;;19.83;6.87;;;;;;;5.20;79.94;100683.80;125043;1099;104221;-81
2021/12/17 10:49:24;;;;;;;19.43;6.60;;;;;;;5.15;80.12;100678.32;125233;1102;104233;-82
2021/12/17 10:52:36;;;;;;;18.83;6.23;;;;;;;5.15;80.49;100677.44;125163;1102;104149;-81
2021/12/17 10:55:19;;;;;;;16.40;5.97;;;;;;;5.12;78.98;100665.13;125020;1102;104345;-83
2021/12/17 10:58:08;;;;;;;;;;;;;;;;;;;;;
2021/12/17 11:01:07;;;;;;;18.60;6.57;;;;;;;5.11;79.97;100662.44;125229;1103;102909;-81
2021/12/17 11:04:20;;;;;;;21.33;7.53;;;;;;;5.13;80.39;100668.66;125206;1102;104153;-83
2021/12/17 11:06:59;;;;;;;17.57;6.50;;;;;;;5.13;79.95;100668.66;125092;1102;104485;-81
2021/12/17 11:09:57;;;;;;;13.93;5.43;;;;;;;5.12;79.14;100659.04;125167;1101;102996;-81
2021/12/17 11:12:40;;;;;;;13.60;4.87;;;;;;;5.10;78.26;100668.47;125224;1102;104297;-82
2021/12/17 11:18:07;;;;;;;17.23;5.20;;;;;;;5.06;77.88;100663.87;124789;1102;104213;-82
2021/12/17 11:20:42;;;;;;;10.97;4.00;;;;;;;5.02;76.85;100640.28;124812;1102;104176;-82
2021/12/17 11:23:19;;;;;;;12.73;4.57;;;;;;;5.01;77.67;100658.39;124970;1102;111377;-84
2021/12/17 11:25:58;;;;;;;10.40;4.47;;;;;;;5.02;77.96;100653.28;125007;1102;104418;-83
2021/12/17 11:28:34;;;;;;;10.83;4.03;;;;;;;5.06;78.17;100645.66;124959;1102;104227;-82
2021/12/17 11:31:07;;;;;;;9.55;4.25;;;;;;;5.07;77.61;100648.36;124921;1102;104272;-82
2021/12/17 11:34:05;;;;;;;11.23;4.73;;;;;;;5.11;78.43;100652.95;125030;1102;104727;-81
2021/12/17 11:36:41;;;;;;;12.43;4.20;;;;;;;5.15;77.17;100646.22;124890;1102;104205;-80
2021/12/17 11:39:25;;;;;;;14.73;4.50;;;;;;;5.15;77.10;100649.70;124932;1101;104466;-81
2021/12/17 11:45:25;;;;;;;15.43;4.37;;;;;;;5.19;76.69;100638.69;124756;1102;108193;-81
2021/12/17 11:48:21;;;;;;;14.70;4.10;;;;;;;5.21;76.15;100636.17;125044;1102;104443;-80
2021/12/17 11:51:27;;;;;;;14.73;3.77;;;;;;;5.25;76.06;100634.64;125099;1102;104338;-79
2021/12/17 11:54:17;;;;;;;13.00;3.93;;;;;;;5.28;76.08;100642.63;125080;1102;104219;-79
2021/12/17 11:56:54;;;;;;;12.37;3.93;;;;;;;5.29;76.66;100640.13;125023;1102;101928;-83
2021/12/17 11:59:42;;;;;;;12.65;3.95;;;;;;;5.31;76.15;100638.50;125021;1102;104304;-80
2021/12/17 12:02:16;;;;;;;13.53;4.13;;;;;;;5.32;76.05;100640.30;125115;1102;104187;-81
2021/12/17 12:05:17;;;;;;;;;;;;;;;;;;;;;
2021/12/17 12:08:34;;;;;;;15.93;4.90;;;;;;;5.36;76.01;100636.16;125181;1099;102830;-81
2021/12/17 12:11:13;;;;;;;13.03;4.63;;;;;;;5.35;77.03;100630.08;126152;1099;104310;-82
2021/12/17 12:13:45;;;;;;;14.13;4.20;;;;;;;5.34;77.09;100625.67;125298;1099;104229;-82
2021/12/17 12:16:34;;;;;;;14.63;4.10;;;;;;;5.31;76.81;100635.01;125969;1099;104200;-81
2021/12/17 12:19:10;;;;;;;14.70;4.30;;;;;;;5.28;76.36;100637.42;125839;1099;104634;-81
2021/12/17 12:22:08;;;;;;;13.40;4.63;;;;;;;5.25;76.04;100638.16;125403;1099;104229;-80
2021/12/17 12:25:08;;;;;;;10.90;4.10;;;;;;;5.23;76.30;100637.16;125269;1099;104890;-81
2021/12/17 12:27:53;;;;;;;18.23;5.30;;;;;;;5.21;76.48;100636.17;125899;1099;107573;-81
2021/12/17 12:30:42;;;;;;;13.03;3.93;;;;;;;5.22;76.60;100646.67;125903;1099;104178;-80
2021/12/17 12:33:17;;;;;;;11.10;3.90;;;;;;;5.23;76.41;100642.36;125198;1099;104230;-82
2021/12/17 12:36:05;;;;;;;19.20;5.13;;;;;;;5.22;76.51;100638.88;125002;1103;105135;-81
2021/12/17 12:38:43;;;;;;;13.80;4.47;;;;;;;5.20;77.09;100644.78;125063;1102;104169;-80
2021/12/17 12:41:34;;;;;;;15.33;4.30;;;;;;;5.11;76.16;100634.74;125128;1102;104230;-79
2021/12/17 12:44:43;;;;;;;12.63;3.57;;;;;;;5.14;76.23;100654.81;125733;1099;104204;-80
2021/12/17 12:47:39;;;;;;;12.30;3.70;;;;;;;5.06;75.55;100656.06;125775;1099;104338;-79
2021/12/17 12:50:12;;;;;;;15.93;4.20;;;;;;;5.01;76.20;100658.39;125201;1099;104297;-79
2021/12/17 12:52:58;;;;;;;14.43;3.57;;;;;;;4.98;76.51;100655.61;125218;1102;104297;-79
2021/12/17 12:55:39;;;;;;;10.23;3.27;;;;;;;4.95;76.60;100664.11;125838;1099;104184;-80
2021/12/17 12:58:47;;;;;;;;;;;;;;;;;;;;;
2021/12/17 13:01:26;;;;;;;12.85;3.80;;;;;;;4.88;76.68;100676.64;125129;1102;104255;-79
2021/12/17 13:04:08;;;;;;;15.13;4.27;;;;;;;4.83;76.67;100673.75;125924;1099;104150;-80
2021/12/17 13:06:51;;;;;;;11.77;4.03;;;;;;;4.80;76.46;100668.37;125054;1102;104367;-80
2021/12/17 13:09:34;;;;;;;16.40;4.63;;;;;;;4.77;76.60;100660.37;125140;1099;104203;-78
2021/12/17 13:12:07;;;;;;;18.27;4.67;;;;;;;4.73;76.53;100658.41;125116;1099;104258;-79
2021/12/17 13:14:46;;;;;;;13.33;4.57;;;;;;;4.71;77.36;100655.72;125087;1102;104230;-79
2021/12/17 13:17:40;;;;;;;14.97;4.40;;;;;;;4.72;77.23;100660.13;125032;1102;104188;-79
2021/12/17 13:23:17;;;;;;;17.47;4.60;;;;;;;4.71;77.12;100657.44;125876;1098;102082;-79
2021/12/17 13:26:06;;;;;;;17.93;4.63;;;;;;;4.71;77.09;100655.72;125841;1099;104169;-78
2021/12/17 13:29:06;;;;;;;14.80;4.27;;;;;;;4.72;76.94;100656.61;125164;1099;104802;-80
2021/12/17 13:31:49;;;;;;;17.03;4.30;;;;;;;4.71;77.27;100658.32;125237;1099;104166;-78
2021/12/17 13:34:29;;;;;;;17.07;4.63;;;;;;;4.70;77.36;100666.91;125143;1102;104651;-80
2021/12/17 13:37:18;;;;;;;13.73;4.20;;;;;;;4.69;76.87;100670.34;125202;1101;104542;-80
2021/12/17 13:40:02;;;;;;;14.97;4.77;;;;;;;4.69;76.89;100644.34;125210;1099;104171;-80
2021/12/17 13:42:35;;;;;;;17.23;5.07;;;;;;;4.68;77.29;100651.22;125991;1099;104329;-79
2021/12/17 13:45:13;;;;;;;13.47;4.57;;;;;;;4.61;76.96;100636.07;125860;1099;104428;-79
2021/12/17 13:47:50;;;;;;;12.57;4.63;;;;;;;4.68;77.20;100651.22;126012;1099;104280;-79
2021/12/17 13:50:32;;;;;;;12.10;4.30;;;;;;;4.68;77.10;100648.62;125705;1099;104192;-79
2021/12/17 13:53:15;;;;;;;13.00;3.87;;;;;;;4.69;76.57;100644.34;125983;1099;104149;-80
2021/12/17 13:55:57;;;;;;;15.75;4.35;;;;;;;4.70;77.27;100655.62;125856;1099;104267;-81
2021/12/17 13:58:45;;;;;;;15.07;3.93;;;;;;;4.70;77.08;100653.03;125095;1099;104676;-79
2021/12/17 14:01:23;;;;;;;19.47;5.37;;;;;;;4.67;77.36;100648.52;125922;1099;104300;-80
2021/12/17 14:04:03;;;;;;;9.37;3.93;;;;;;;4.66;77.25;100664.95;125920;1099;104155;-80
2021/12/17 14:06:46;;;;;;;14.47;4.37;;;;;;;4.65;77.05;100663.14;125254;1099;104153;-79
2021/12/17 14:09:19;;;;;;;15.03;5.70;;;;;;;4.65;76.76;100658.83;126039;1099;104150;-78
2021/12/17 14:11:52;;;;;;;15.70;4.80;;;;;;;4.64;77.07;100654.45;125976;1099;104172;-79
2021/12/17 14:14:25;;;;;;;16.10;4.37;;;;;;;4.64;76.97;100663.93;125969;1099;104422;-79
2021/12/17 14:16:59;;;;;;;9.50;4.30;;;;;;;4.61;77.29;100656.86;126118;1099;104204;-79
2021/12/17 14:19:45;;;;;;;13.75;4.55;;;;;;;4.60;77.28;100664.56;125252;1099;104166;-78
2021/12/17 14:22:29;;;;;;;15.43;4.40;;;;;;;4.57;77.48;100669.58;125848;1099;104793;-79
2021/12/17 14:24:58;;;;;;;;;;;;;;;4.53;77.23;100664.97;125863;1099;104306;-79
2021/12/17 14:31:01;;;;;;;14.33;4.40;;;;;;;4.44;76.48;100671.40;125954;1098;110899;-77
2021/12/17 14:33:37;;;;;;;15.13;4.13;;;;;;;4.41;76.65;100663.41;126254;1099;104156;-80
2021/12/17 14:36:10;;;;;;;10.58;4.25;;;;;;;4.38;76.74;100670.09;126123;1099;104152;-79
2021/12/17 14:38:49;;;;;;;12.40;3.90;;;;;;;4.36;76.57;100664.80;126096;1099;104133;-83
2021/12/17 14:41:27;;;;;;;9.90;4.20;;;;;;;4.32;76.37;100668.91;125715;1099;119936;-80
2021/12/17 14:44:17;;;;;;;11.23;4.53;;;;;;;4.30;77.07;100683.52;125887;1099;104367;-78
2021/12/17 14:47:05;;;;;;;11.07;4.07;;;;;;;4.29;76.87;100668.72;126061;1099;104800;-83
2021/12/17 15:01:14;;;;;;;13.20;4.60;;;;;;;4.23;76.97;100670.92;125719;1097;104173;-76
2021/12/17 15:03:46;;;;;;;16.70;4.97;;;;;;;4.21;77.23;100680.33;125810;1099;104178;-77
2021/12/17 15:06:20;;;;;;;14.30;4.50;;;;;;;4.20;76.61;100681.12;125034;1099;104205;-78
2021/12/17 15:08:53;;;;;;;13.20;5.10;;;;;;;4.20;76.69;100680.23;125872;1099;104175;-77
2021/12/17 15:11:30;;;;;;;13.27;4.80;;;;;;;4.19;77.17;100681.94;125351;1099;104175;-79
2021/12/17 15:14:02;;;;;;;15.87;5.70;;;;;;;4.18;77.22;100674.94;125861;1099;104172;-78